x

Seal Rocks - Between Montague And Hinchinbrook Islands, Ak (46061) Wave Buoy

11:50pm - Wed 29th Jul 2015 All times are AKDT. -8 hours from GMT.

  • Sig Wave height 2.0ft
  • Swell Direction
  • Peak Period 17s
  • Average Period 7s
  • Wind
    11mph, 13mph gusts
  • Sea Temp 60°f
  • Air Temp 58°f
  • Sea Pressure 1018.7mb
  • Seal Rocks - Between Montague And Hinchinbrook Islands, Ak
  • Seal Rocks - Between Montague And Hinchinbrook Islands, Ak

More Historic Weather Station data

Upgrade to MSW Pro to gain access to the past 30 days of data for over 8000 Wavebouys and Weather Stations around the globe.

Join Pro

Comparision Forecast

View Surf forecast
   
Wed 07/29 11:50pm 2ft 17s 7s 11 13 mph 1018.7mb 60f 58f
10:50pm 2ft 17s 6s 11 13 mph 1018.5mb 60f 58f
9:50pm 2.5ft 17s 6s 7 9 mph 1018.4mb 60f 58f
8:50pm 2.5ft 16s 6s 7 9 mph 1018.2mb 61f 58f
7:50pm 2.5ft 16s 6s 7 9 mph 1018mb 61f 58f
6:50pm 2.5ft 17s 6s 7
mph
1017.9mb 61f 58f
5:50pm 2.5ft 16s 7s 9
mph
1017.9mb 61f 58f
4:50pm 2.5ft 17s 7s 7 9 mph 1018mb 61f 58f
3:50pm 2.5ft 17s 7s 4 9 mph 1018.1mb 61f 58f
2:50pm 2.5ft 17s 7s 9 11 mph 1017.9mb 61f 58f
1:50pm 2.5ft 16s 6s 9
mph
1017.6mb 60f 57f
12:50pm 2ft 17s 6s 11 13 mph 1017.2mb 60f 57f
11:50am 2ft 17s 6s 9 11 mph 1017mb 60f 57f
10:50am 2.5ft 17s 5s 11 13 mph 1016.6mb 60f 57f
9:50am 2.5ft 17s 5s 11 13 mph 1016.5mb 60f 57f
7:50am 2.5ft 17s 5s 13 16 mph 1015.9mb 60f 57f
6:50am 2.5ft 7s 6s 13 16 mph 1015.6mb 60f 58f
5:50am 2.5ft 17s 7s 13 16 mph 1015.4mb 60f 57f
4:50am 2.5ft 17s 6s 11
mph
1015.1mb 60f 58f
2:50am 2.5ft 16s 6s 13 16 mph 1014.7mb 60f 58f
1:50am 2.5ft 16s 7s 11 13 mph 1014.6mb 60f 58f
12:50am 2.5ft 8s 7s 11 13 mph 1014.4mb 60f 58f
Tue 07/28 11:50pm 2.5ft 17s 7s 11 13 mph 1014.1mb 60f 59f
10:50pm 2.5ft 17s 7s 11
mph
1013.7mb 61f 59f
9:50pm 2.5ft 19s 6s 11
mph
1013.4mb 61f 59f
8:50pm 2.5ft 19s 7s 7
mph
1013.3mb 61f 60f
7:50pm 2.5ft 7s 6s 7 9 mph 1013.1mb 61f 60f
6:50pm 2.5ft 7s 7s 7 9 mph 1012.9mb 62f 60f
5:50pm 2.5ft 17s 7s 7 9 mph 1012.7mb 62f 59f
4:50pm 2.5ft 8s 7s 7 9 mph 1012.5mb 62f 59f
3:50pm 2.5ft 7s 7s 7 9 mph 1012.1mb 62f 59f
2:50pm 2.5ft 8s 7s 9
mph
1011.6mb 61f 59f
1:50pm 2.5ft 7s 7s 7 9 mph 1011.2mb 61f 59f
12:50pm 2.5ft 8s 6s 4 7 mph 1010.7mb 61f 58f
11:50am 2ft 17s 6s 7
mph
1010.4mb 60f 58f
10:50am 2.5ft 8s 6s 4 7 mph 1010mb 60f 58f
9:50am 2.5ft 6s 6s 4 7 mph 1009.8mb 60f 58f
8:50am 2.5ft 6s 6s 2 4 mph 1009.7mb 59f 58f
7:50am 2ft 6s 6s 4
mph
1009.3mb 59f 58f
6:50am 2.5ft 7s 6s 2 4 mph 1009.1mb 59f 58f
5:50am 2.5ft 6s 6s 2 4 mph 1008.9mb 59f 57f
4:50am 2.5ft 7s 6s  -  2 mph 1008.8mb 59f 57f
3:50am 2.5ft 8s 7s 2 4 mph 1008.8mb 59f 57f
2:50am 2.5ft 8s 7s 7
mph
1008.8mb 59f 57f
1:50am 3ft 7s 7s 7 11 mph 1008.6mb 59f 57f
12:50am 2.5ft 7s 7s 4
mph
1008.4mb 59f 57f
Mon 07/27 11:50pm 2.5ft 7s 7s 7
mph
1008.3mb 60f 57f
10:50pm 2.5ft 7s 7s 7
mph
1008.2mb 60f 58f
9:50pm 2.5ft 7s 6s 7
mph
1007.8mb 60f 58f
8:50pm 2.5ft 7s 6s 4 7 mph 1007.5mb 60f 58f
7:50pm 2.5ft 8s 6s 7
mph
1007.5mb 60f 58f
6:50pm 3ft 7s 6s 7 9 mph 1007.3mb 60f 58f
5:50pm 3ft 7s 6s 7 9 mph 1006.9mb 61f 58f
4:50pm 3ft 8s 6s 4 7 mph 1006.9mb 61f 58f
3:50pm 3ft 8s 6s 4 7 mph 1006.8mb 61f 58f
2:50pm 3.5ft 8s 6s 7 9 mph 1006.4mb 60f 57f
1:50pm 3ft 10s 6s 9 11 mph 1006mb 60f 57f
12:50pm 3.5ft 7s 6s 9
mph
1005.7mb 60f 57f
11:50am 3ft 8s 6s 7 9 mph 1005.5mb 59f 56f
10:50am 3.5ft 8s 6s 4 7 mph 1005.3mb 59f 56f
9:50am 3.5ft 8s 6s  -  4 mph 1005.1mb 59f 56f
8:50am 3ft 8s 6s 7 9 mph 1004.8mb 59f 56f
7:50am 3.5ft 9s 6s 7 9 mph 1004.7mb 59f 56f
6:50am 3.5ft 6s 5s 4 7 mph 1004.8mb 59f 56f
5:50am 3.5ft 8s 6s 9 11 mph 1004.7mb 59f 56f
4:50am 3ft 7s 6s 9 16 mph 1004.6mb 59f 57f
3:50am 3ft 7s 6s  -  mph 1004.8mb 60f 56f
2:50am 3ft 8s 6s 7 9 mph 1005mb 60f 56f
1:50am 3ft 7s 6s 4 7 mph 1005mb 60f 57f
12:50am 2.5ft 10s 7s 9 11 mph 1005mb 60f 56f
Sun 07/26 11:50pm 2.5ft 7s 6s 7
mph
1005mb 60f 56f
10:50pm 2.5ft 7s 5s 7 9 mph 1005mb 60f 56f
9:50pm 2.5ft 6s 5s 11 13 mph 1005mb 60f 57f
8:50pm 2.5ft 7s 5s 11 13 mph 1005.1mb 60f 58f
7:50pm 2.5ft 7s 5s 11 13 mph 1005.2mb 60f 57f
6:50pm 2.5ft 7s 5s 9 11 mph 1005.3mb 60f 58f
5:50pm 2ft 7s 5s 11 13 mph 1005.4mb 60f 58f
4:50pm 2ft 7s 5s 11 13 mph 1005.3mb 61f 58f
3:50pm 2ft 7s 5s 9 11 mph 1005.4mb 61f 59f
2:50pm 2.5ft 6s 5s 9
mph
1005.4mb 61f 58f
1:50pm 2ft 7s 5s 2 4 mph 1005.2mb 61f 59f
12:50pm 2ft 7s 5s 7 9 mph 1004.9mb 60f 58f
11:50am 2.5ft 7s 5s 7 9 mph 1004.6mb 60f 57f
10:50am 2.5ft 6s 5s 7 9 mph 1004.7mb 59f 57f
9:50am 3ft 5s 4s 9 16 mph 1004.6mb 59f 57f